Time;durP1;ratioP1;P1;durP2;ratioP2;P2;SDS_P1;SDS_P2;PMS_P1;PMS_P2;Temp;Humidity;BMP_temperature;BMP_pressure;BME280_temperature;BME280_humidity;BME280_pressure;Samples;Min_cycle;Max_cycle;Signal;HPM_P1;HPM_P2
2022/03/25 00:00:25;;;;;;;150.70;76.13;;;5.00;99.90;;;;;;5020845;28;20116;-93
2022/03/25 00:02:52;;;;;;;167.73;78.55;;;5.00;99.90;;;;;;5015806;28;20095;-94
2022/03/25 00:05:19;;;;;;;168.35;78.13;;;5.00;99.90;;;;;;5020303;28;20125;-94
2022/03/25 00:07:45;;;;;;;165.73;79.07;;;5.00;99.90;;;;;;5001984;28;20045;-94
2022/03/25 00:10:11;;;;;;;163.43;77.63;;;5.10;99.90;;;;;;5024696;28;20052;-94
2022/03/25 00:12:40;;;;;;;178.82;78.68;;;5.20;99.90;;;;;;5031029;28;20049;-94
2022/03/25 00:15:06;;;;;;;172.50;81.60;;;5.10;99.90;;;;;;5010319;28;20045;-96
2022/03/25 00:17:33;;;;;;;194.75;84.57;;;5.10;99.90;;;;;;5012333;28;20493;-94
2022/03/25 00:19:59;;;;;;;191.45;84.05;;;5.10;99.90;;;;;;5031835;28;20072;-94
2022/03/25 00:22:25;;;;;;;216.02;88.85;;;5.20;99.90;;;;;;5031018;28;20486;-95
2022/03/25 00:24:52;;;;;;;227.18;89.13;;;5.10;99.90;;;;;;4998301;28;20084;-94
2022/03/25 00:27:27;;;;;;;213.88;86.03;;;5.10;99.90;;;;;;4998674;28;20057;-94
2022/03/25 00:29:54;;;;;;;218.65;90.35;;;5.00;99.90;;;;;;5003039;28;20543;-94
2022/03/25 00:32:29;;;;;;;214.00;90.75;;;5.10;99.90;;;;;;5025772;28;20053;-95
2022/03/25 00:34:57;;;;;;;211.95;87.40;;;5.00;99.90;;;;;;4986493;28;20048;-95
2022/03/25 00:37:29;;;;;;;232.18;91.68;;;5.00;99.90;;;;;;5008289;28;20045;-95
2022/03/25 00:40:07;;;;;;;234.23;90.55;;;5.00;99.90;;;;;;5045265;28;20172;-95
2022/03/25 00:42:35;;;;;;;214.75;88.18;;;5.20;99.90;;;;;;4993780;28;20038;-95
2022/03/25 00:45:05;;;;;;;219.20;89.25;;;5.20;99.90;;;;;;5018264;28;20401;-96
2022/03/25 00:47:31;;;;;;;220.00;89.15;;;5.20;99.90;;;;;;4991043;28;20168;-94
2022/03/25 00:50:01;;;;;;;220.98;88.68;;;5.20;99.90;;;;;;5016301;28;20053;-95
2022/03/25 00:52:28;;;;;;;230.90;92.30;;;5.20;99.90;;;;;;5022133;28;20053;-94
2022/03/25 00:54:59;;;;;;;233.48;95.30;;;5.20;99.90;;;;;;4990128;28;20042;-95
2022/03/25 00:57:32;;;;;;;242.50;93.82;;;5.20;99.90;;;;;;5013807;28;20062;-95
2022/03/25 01:00:17;;;;;;;243.73;97.65;;;5.20;99.90;;;;;;5012273;28;20041;-95
2022/03/25 01:03:13;;;;;;;249.18;91.53;;;5.30;99.90;;;;;;4974771;28;20038;-93
2022/03/25 01:05:43;;;;;;;240.70;97.07;;;5.20;99.90;;;;;;5011126;28;20045;-94
2022/03/25 01:08:30;;;;;;;246.43;96.60;;;5.20;99.90;;;;;;5020618;28;20049;-95
2022/03/25 01:10:57;;;;;;;246.45;94.80;;;5.20;99.90;;;;;;4997715;28;20048;-94
2022/03/25 01:13:33;;;;;;;225.55;88.10;;;5.20;99.90;;;;;;4998084;28;20053;-93
2022/03/25 01:16:07;;;;;;;225.68;87.75;;;5.20;99.90;;;;;;5033606;28;20132;-94
2022/03/25 01:18:35;;;;;;;223.07;88.50;;;5.20;99.90;;;;;;5033191;28;20056;-94
2022/03/25 01:21:21;;;;;;;197.18;84.20;;;5.20;99.90;;;;;;5003638;28;20042;-95
2022/03/25 01:23:48;;;;;;;223.15;89.68;;;5.10;99.90;;;;;;5008728;28;20049;-94
2022/03/25 01:26:15;;;;;;;222.70;86.13;;;5.20;99.90;;;;;;5003362;28;20044;-95
2022/03/25 01:28:41;;;;;;;198.77;83.45;;;5.20;99.90;;;;;;4995634;28;20053;-95
2022/03/25 01:31:45;;;;;;;189.52;79.93;;;5.60;99.90;;;;;;5006782;28;20510;-96
2022/03/25 01:34:15;;;;;;;227.57;91.30;;;5.10;99.90;;;;;;4995433;28;20046;-95
2022/03/25 01:36:44;;;;;;;239.10;95.95;;;5.40;99.90;;;;;;4995724;28;20081;-95
2022/03/25 01:39:13;;;;;;;215.07;86.28;;;5.20;99.90;;;;;;5011334;28;20046;-95
2022/03/25 01:41:47;;;;;;;207.73;89.35;;;5.20;99.90;;;;;;5010618;28;20062;-94
2022/03/25 01:44:17;;;;;;;221.80;89.38;;;5.20;99.90;;;;;;5011782;28;20042;-95
2022/03/25 01:46:47;;;;;;;206.13;86.75;;;5.10;99.90;;;;;;4976411;28;20042;-93
2022/03/25 01:49:26;;;;;;;204.95;84.47;;;5.10;99.90;;;;;;4982368;28;20057;-94
2022/03/25 01:52:02;;;;;;;187.77;83.05;;;5.10;99.90;;;;;;4996129;28;20046;-94
2022/03/25 01:54:34;;;;;;;180.63;81.30;;;5.10;99.90;;;;;;4980325;28;20049;-95
2022/03/25 01:57:05;;;;;;;182.98;80.43;;;5.20;99.90;;;;;;4983520;28;20077;-94
2022/03/25 01:59:35;;;;;;;192.90;82.00;;;5.10;99.90;;;;;;4992355;28;20046;-95
2022/03/25 02:02:03;;;;;;;167.57;75.65;;;5.40;99.90;;;;;;4990540;28;20050;-94
2022/03/25 02:04:29;;;;;;;175.07;77.22;;;5.30;99.90;;;;;;4996100;28;20089;-94
2022/03/25 02:06:55;;;;;;;178.23;77.57;;;5.50;99.90;;;;;;4993427;28;20077;-94
2022/03/25 02:09:25;;;;;;;164.27;73.28;;;5.30;99.90;;;;;;4995474;28;20049;-94
2022/03/25 02:11:55;;;;;;;164.13;75.90;;;5.30;99.90;;;;;;4994832;28;20038;-94
2022/03/25 02:14:22;;;;;;;155.43;73.22;;;5.30;99.90;;;;;;5008879;28;20099;-94
2022/03/25 02:16:49;;;;;;;140.13;66.65;;;5.40;99.90;;;;;;4979596;28;20848;-94
2022/03/25 02:19:18;;;;;;;139.60;67.50;;;5.20;99.90;;;;;;5005951;28;20046;-94
2022/03/25 02:21:46;;;;;;;148.43;69.70;;;5.10;99.90;;;;;;4993187;28;20046;-94
2022/03/25 02:24:13;;;;;;;132.73;66.32;;;5.20;99.90;;;;;;4990668;28;20075;-94
2022/03/25 02:26:41;;;;;;;136.18;65.57;;;5.00;99.90;;;;;;4992453;28;20058;-94
2022/03/25 02:29:09;;;;;;;145.80;69.72;;;5.00;99.90;;;;;;4989633;28;20050;-94
2022/03/25 02:31:39;;;;;;;138.73;68.32;;;5.10;99.90;;;;;;4996136;28;20142;-93
2022/03/25 02:34:06;;;;;;;141.50;67.75;;;5.00;99.90;;;;;;5006886;28;20128;-94
2022/03/25 02:36:51;;;;;;;137.25;67.82;;;5.10;99.90;;;;;;5011492;28;20054;-95
2022/03/25 02:39:22;;;;;;;151.77;72.32;;;5.00;99.90;;;;;;5012114;28;20053;-95
2022/03/25 02:41:54;;;;;;;148.90;72.05;;;5.10;99.90;;;;;;4995933;28;20046;-93
2022/03/25 02:44:22;;;;;;;151.45;71.68;;;5.10;99.90;;;;;;5012109;28;20042;-96
2022/03/25 02:46:48;;;;;;;165.45;74.78;;;5.10;99.90;;;;;;4995867;28;20056;-93
2022/03/25 02:49:18;;;;;;;154.73;70.38;;;5.10;99.90;;;;;;5012542;28;20397;-94
2022/03/25 02:51:53;;;;;;;145.55;68.60;;;5.10;99.90;;;;;;5012011;28;20073;-94
2022/03/25 02:54:19;;;;;;;144.25;67.78;;;5.00;99.90;;;;;;4995340;28;20129;-94
2022/03/25 02:56:45;;;;;;;134.88;65.03;;;4.90;99.90;;;;;;4979290;28;20134;-94
2022/03/25 02:59:11;;;;;;;139.98;66.95;;;4.90;99.90;;;;;;4979719;28;20129;-94
2022/03/25 03:01:40;;;;;;;132.68;65.70;;;4.80;99.90;;;;;;4995455;28;20042;-93
2022/03/25 03:04:06;;;;;;;147.10;66.68;;;4.90;99.90;;;;;;4995774;28;20057;-94
2022/03/25 03:06:32;;;;;;;141.20;67.78;;;4.80;99.90;;;;;;4995292;28;20406;-94
2022/03/25 03:09:01;;;;;;;135.18;66.18;;;4.90;99.90;;;;;;5010939;28;20134;-95
2022/03/25 03:11:28;;;;;;;140.52;64.75;;;4.80;99.90;;;;;;4995544;28;20053;-94
2022/03/25 03:13:54;;;;;;;128.35;64.60;;;4.90;99.90;;;;;;4979717;28;20049;-93
2022/03/25 03:16:21;;;;;;;118.53;60.03;;;5.00;99.90;;;;;;4995680;28;20049;-95
2022/03/25 03:18:47;;;;;;;112.38;58.63;;;4.80;99.90;;;;;;5011845;28;20125;-93
2022/03/25 03:21:13;;;;;;;123.05;59.10;;;4.70;99.90;;;;;;5011590;28;20442;-94
2022/03/25 03:23:41;;;;;;;119.57;63.38;;;4.60;99.90;;;;;;5011640;28;20045;-94
2022/03/25 03:26:07;;;;;;;122.82;61.05;;;4.70;99.90;;;;;;4995692;28;20057;-94
2022/03/25 03:28:36;;;;;;;115.15;57.47;;;4.70;99.90;;;;;;5011560;28;20156;-93
2022/03/25 03:31:04;;;;;;;117.18;59.25;;;4.60;99.90;;;;;;5015471;28;20050;-94
2022/03/25 03:33:30;;;;;;;114.40;60.45;;;5.00;99.90;;;;;;5017533;28;20045;-93
2022/03/25 03:35:57;;;;;;;115.90;60.40;;;4.70;99.90;;;;;;5018090;28;20052;-95
2022/03/25 03:38:24;;;;;;;105.70;56.53;;;4.70;99.90;;;;;;5001592;28;20140;-94
2022/03/25 03:40:50;;;;;;;105.07;58.33;;;4.70;99.90;;;;;;5022666;28;20512;-94
2022/03/25 03:43:26;;;;;;;102.53;53.25;;;4.70;99.90;;;;;;5001866;28;20079;-95
2022/03/25 03:45:54;;;;;;;89.80;48.88;;;4.70;99.90;;;;;;5019872;28;20508;-93
2022/03/25 03:48:20;;;;;;;93.63;48.67;;;4.70;99.90;;;;;;5018335;28;20053;-94
2022/03/25 03:50:46;;;;;;;91.45;49.25;;;5.50;99.90;;;;;;5000957;28;20634;-94
2022/03/25 03:53:12;;;;;;;85.30;46.03;;;4.80;99.90;;;;;;4999536;28;20045;-94
2022/03/25 03:55:38;;;;;;;97.35;50.13;;;4.80;99.90;;;;;;5015745;28;20037;-94
2022/03/25 03:58:07;;;;;;;86.38;45.58;;;4.90;99.90;;;;;;5016287;28;20111;-94
2022/03/25 04:00:35;;;;;;;90.05;46.67;;;4.90;99.90;;;;;;5018419;28;20045;-94
2022/03/25 04:03:01;;;;;;;96.10;45.97;;;5.20;99.90;;;;;;5023704;28;20489;-93
2022/03/25 04:05:28;;;;;;;90.85;47.45;;;5.20;99.90;;;;;;4999343;28;20041;-96
2022/03/25 04:07:54;;;;;;;75.57;45.40;;;5.20;99.90;;;;;;5016339;28;20053;-93
2022/03/25 04:10:21;;;;;;;78.63;42.60;;;5.40;99.90;;;;;;5017430;28;20103;-95
2022/03/25 04:12:54;;;;;;;77.60;42.63;;;5.30;99.90;;;;;;5002006;28;20053;-94
2022/03/25 04:15:25;;;;;;;82.80;41.70;;;5.30;99.90;;;;;;5017678;28;20041;-94
2022/03/25 04:17:50;;;;;;;78.25;42.10;;;5.30;99.90;;;;;;5001008;28;20099;-93
2022/03/25 04:20:16;;;;;;;75.15;42.92;;;5.30;99.90;;;;;;5019864;28;20049;-94
2022/03/25 04:22:48;;;;;;;73.63;41.75;;;5.40;99.90;;;;;;5021045;28;20055;-93
2022/03/25 04:25:14;;;;;;;73.97;42.00;;;5.40;99.90;;;;;;5006070;28;20051;-94
2022/03/25 04:27:50;;;;;;;72.95;42.42;;;5.40;99.90;;;;;;5020724;28;20067;-94
2022/03/25 04:30:18;;;;;;;81.43;41.95;;;5.50;99.90;;;;;;5021254;28;20063;-94
2022/03/25 04:32:44;;;;;;;72.72;42.03;;;5.50;99.90;;;;;;5020368;28;20511;-94
2022/03/25 04:35:10;;;;;;;81.70;41.55;;;5.50;99.90;;;;;;5001494;28;20045;-94
2022/03/25 04:37:37;;;;;;;78.07;40.88;;;5.50;99.90;;;;;;5012947;28;20091;-94
2022/03/25 04:40:06;;;;;;;72.07;38.88;;;5.50;99.90;;;;;;5005087;28;20049;-93
2022/03/25 04:42:32;;;;;;;70.03;40.95;;;5.40;99.90;;;;;;5021026;28;20112;-94
2022/03/25 04:44:58;;;;;;;71.05;40.17;;;5.40;99.90;;;;;;5020449;28;20131;-95
2022/03/25 04:47:24;;;;;;;69.75;38.40;;;5.40;99.90;;;;;;5007384;28;20089;-93
2022/03/25 04:49:50;;;;;;;73.47;38.22;;;5.40;99.90;;;;;;5016095;28;20048;-92
2022/03/25 04:52:16;;;;;;;63.72;37.95;;;5.40;99.90;;;;;;5021046;28;20079;-93
2022/03/25 04:54:44;;;;;;;70.47;38.20;;;5.40;99.90;;;;;;5004222;28;20041;-93
2022/03/25 04:57:13;;;;;;;66.90;37.15;;;5.40;99.90;;;;;;5008039;28;20548;-94
2022/03/25 04:59:39;;;;;;;67.45;37.13;;;5.60;99.90;;;;;;5020309;28;20159;-93
2022/03/25 05:02:09;;;;;;;62.33;37.55;;;5.40;99.90;;;;;;5004443;28;20082;-94
2022/03/25 05:04:35;;;;;;;70.28;38.97;;;5.40;99.90;;;;;;5020178;28;20485;-94
2022/03/25 05:07:02;;;;;;;78.35;40.25;;;5.30;99.90;;;;;;5020662;28;20498;-93
2022/03/25 05:09:28;;;;;;;73.03;40.78;;;5.40;99.90;;;;;;5020600;28;20131;-93
2022/03/25 05:11:54;;;;;;;80.10;41.88;;;5.50;99.90;;;;;;5003953;28;20126;-93
2022/03/25 05:14:20;;;;;;;77.63;41.88;;;5.50;99.90;;;;;;5033688;28;20040;-93
2022/03/25 05:16:52;;;;;;;75.93;40.97;;;5.70;99.90;;;;;;5020190;28;20074;-93
2022/03/25 05:19:23;;;;;;;73.15;41.20;;;5.50;99.90;;;;;;5032095;28;20382;-93
2022/03/25 05:21:49;;;;;;;81.63;44.75;;;5.40;99.90;;;;;;5003588;28;20182;-94
2022/03/25 05:24:15;;;;;;;74.97;41.92;;;5.40;99.90;;;;;;5003930;28;20139;-93
2022/03/25 05:26:41;;;;;;;79.75;43.25;;;5.40;99.90;;;;;;5019893;28;20037;-93
2022/03/25 05:29:07;;;;;;;76.22;41.17;;;5.40;99.90;;;;;;5020507;28;20052;-93
2022/03/25 05:31:36;;;;;;;70.68;42.85;;;5.60;99.90;;;;;;5018193;28;20061;-93
2022/03/25 05:34:09;;;;;;;71.00;41.38;;;5.70;99.90;;;;;;5019973;28;20132;-93
2022/03/25 05:36:35;;;;;;;78.60;42.42;;;5.40;99.90;;;;;;5004476;28;20041;-94
2022/03/25 05:39:07;;;;;;;76.00;43.08;;;5.50;99.90;;;;;;5036515;28;20056;-92
2022/03/25 05:41:33;;;;;;;79.00;40.95;;;5.60;99.90;;;;;;5019454;28;20045;-93
2022/03/25 05:43:59;;;;;;;74.38;44.03;;;5.60;99.90;;;;;;5030588;28;20041;-93
2022/03/25 05:46:26;;;;;;;78.00;44.65;;;5.70;99.90;;;;;;5019896;28;20507;-93
2022/03/25 05:48:52;;;;;;;78.40;45.20;;;5.70;99.90;;;;;;5019621;28;20122;-93
2022/03/25 05:51:18;;;;;;;71.60;39.80;;;5.80;99.90;;;;;;5016756;28;20037;-95
2022/03/25 05:53:46;;;;;;;74.30;41.75;;;5.80;99.90;;;;;;5002675;28;20041;-93
2022/03/25 05:56:12;;;;;;;74.05;42.67;;;5.80;99.90;;;;;;5003475;28;20049;-94
2022/03/25 05:58:40;;;;;;;69.25;40.75;;;6.00;99.90;;;;;;5036008;28;20055;-96
2022/03/25 06:01:09;;;;;;;70.03;39.05;;;6.00;99.90;;;;;;5019485;28;20053;-93
2022/03/25 06:03:36;;;;;;;66.65;38.42;;;6.10;99.90;;;;;;5003326;28;20131;-93
2022/03/25 06:06:06;;;;;;;67.78;37.28;;;6.20;99.90;;;;;;5015911;28;20524;-94
2022/03/25 06:08:32;;;;;;;63.25;38.92;;;6.20;99.90;;;;;;5029166;28;20037;-94
2022/03/25 06:10:59;;;;;;;65.85;38.45;;;6.30;99.90;;;;;;4986643;28;20064;-93
2022/03/25 06:13:31;;;;;;;71.97;38.22;;;6.30;99.90;;;;;;5019145;28;20072;-93
2022/03/25 06:15:57;;;;;;;61.95;38.63;;;6.40;99.90;;;;;;5018807;28;20124;-92
2022/03/25 06:18:23;;;;;;;66.28;37.13;;;6.50;99.90;;;;;;5003034;28;20124;-93
2022/03/25 06:20:51;;;;;;;60.58;36.80;;;6.50;99.90;;;;;;5018151;28;20053;-93
2022/03/25 06:23:20;;;;;;;65.65;36.97;;;6.50;99.90;;;;;;5003739;28;20110;-92
2022/03/25 06:25:46;;;;;;;71.93;36.40;;;6.40;99.90;;;;;;5012577;28;20501;-94
2022/03/25 06:28:12;;;;;;;63.08;36.80;;;6.50;99.90;;;;;;5001108;28;20091;-93
2022/03/25 06:30:39;;;;;;;62.30;39.35;;;6.60;99.90;;;;;;5003000;28;20052;-94
2022/03/25 06:33:07;;;;;;;69.90;37.88;;;6.80;99.90;;;;;;5018133;28;20114;-94
2022/03/25 06:35:33;;;;;;;64.15;38.00;;;7.00;99.90;;;;;;5018472;28;20512;-94
2022/03/25 06:38:00;;;;;;;66.50;37.97;;;7.20;99.90;;;;;;5018318;28;20500;-93
2022/03/25 06:40:26;;;;;;;65.32;37.72;;;7.30;99.90;;;;;;5019996;28;20045;-94
2022/03/25 06:42:57;;;;;;;59.08;35.20;;;7.40;99.90;;;;;;5017950;28;20266;-94
2022/03/25 06:45:24;;;;;;;60.88;35.50;;;7.60;99.90;;;;;;5022500;28;20378;-94
2022/03/25 06:47:50;;;;;;;56.05;35.53;;;7.60;99.90;;;;;;5018382;28;20052;-94
2022/03/25 06:50:18;;;;;;;61.70;34.63;;;7.50;99.90;;;;;;5018687;28;20087;-92
2022/03/25 06:52:45;;;;;;;56.10;34.78;;;7.40;99.90;;;;;;5018547;28;20080;-94
2022/03/25 06:55:14;;;;;;;56.40;32.85;;;7.40;99.90;;;;;;5014471;28;20038;-93
2022/03/25 06:57:40;;;;;;;53.03;32.47;;;7.40;99.90;;;;;;5030443;28;20057;-93
2022/03/25 07:00:12;;;;;;;58.67;31.65;;;7.40;99.90;;;;;;5018036;28;20477;-93
2022/03/25 07:02:42;;;;;;;49.78;32.03;;;7.40;99.90;;;;;;5018447;28;20123;-93
2022/03/25 07:05:10;;;;;;;48.80;32.60;;;7.40;99.90;;;;;;5018241;28;20203;-93
2022/03/25 07:07:43;;;;;;;50.83;31.77;;;7.40;99.90;;;;;;5018030;28;20510;-93
2022/03/25 07:10:10;;;;;;;51.58;32.67;;;7.50;99.90;;;;;;5001935;28;20060;-94
2022/03/25 07:12:38;;;;;;;48.45;30.42;;;7.60;99.90;;;;;;5017704;28;20076;-93
2022/03/25 07:15:05;;;;;;;53.15;31.13;;;7.60;99.90;;;;;;5017743;28;20520;-93
2022/03/25 07:17:31;;;;;;;48.78;29.15;;;7.70;99.90;;;;;;5017361;28;20076;-92
2022/03/25 07:19:57;;;;;;;44.78;29.33;;;7.80;99.90;;;;;;5017927;28;20133;-93
2022/03/25 07:22:23;;;;;;;44.55;28.45;;;7.80;99.90;;;;;;5027645;28;20053;-93
2022/03/25 07:24:49;;;;;;;48.42;27.38;;;7.90;99.90;;;;;;4984804;28;20057;-93
2022/03/25 07:27:15;;;;;;;44.72;26.70;;;8.00;99.90;;;;;;5004545;28;20053;-92
2022/03/25 07:29:41;;;;;;;45.35;25.95;;;8.00;99.90;;;;;;5016145;28;20163;-93
2022/03/25 07:32:09;;;;;;;45.42;26.55;;;8.10;99.90;;;;;;5013744;28;20045;-93
2022/03/25 07:34:37;;;;;;;43.47;26.70;;;8.20;99.90;;;;;;5013931;28;20045;-93
2022/03/25 07:37:04;;;;;;;42.95;23.73;;;8.30;99.90;;;;;;5030443;28;20160;-92
2022/03/25 07:39:34;;;;;;;43.38;26.60;;;8.30;99.90;;;;;;5013759;28;20045;-93
2022/03/25 07:41:59;;;;;;;46.22;26.13;;;8.30;99.90;;;;;;5004331;28;20064;-93
2022/03/25 07:44:25;;;;;;;35.60;23.35;;;8.40;99.90;;;;;;5021133;28;20140;-93
2022/03/25 07:46:51;;;;;;;47.70;26.52;;;8.40;99.90;;;;;;5018909;28;20046;-94
2022/03/25 07:49:17;;;;;;;49.55;24.85;;;8.50;99.90;;;;;;5017722;28;20040;-93
2022/03/25 07:51:43;;;;;;;39.15;25.30;;;8.70;99.90;;;;;;4988616;28;20127;-92
2022/03/25 07:54:10;;;;;;;39.78;23.25;;;8.60;99.90;;;;;;5011954;28;20049;-94
2022/03/25 07:56:37;;;;;;;36.92;24.23;;;8.70;99.90;;;;;;5019460;28;20572;-94
2022/03/25 07:59:03;;;;;;;37.03;22.88;;;8.70;99.90;;;;;;5005016;28;20048;-93
2022/03/25 08:01:33;;;;;;;38.22;23.13;;;8.80;99.90;;;;;;5005579;28;20088;-94
2022/03/25 08:03:59;;;;;;;41.38;22.88;;;8.90;99.90;;;;;;5019525;28;20048;-93
2022/03/25 08:06:27;;;;;;;35.78;21.30;;;8.90;99.90;;;;;;5021597;28;20045;-94
2022/03/25 08:08:53;;;;;;;37.65;20.77;;;9.00;99.90;;;;;;5012923;28;20052;-94
2022/03/25 08:11:20;;;;;;;41.85;22.80;;;9.10;99.90;;;;;;5018820;28;20088;-94
2022/03/25 08:13:47;;;;;;;35.90;19.90;;;9.20;99.90;;;;;;5027513;28;20478;-94
2022/03/25 08:16:16;;;;;;;31.85;20.65;;;9.30;99.90;;;;;;5022729;28;20567;-93
2022/03/25 08:18:43;;;;;;;34.22;21.10;;;9.30;99.90;;;;;;5017366;28;20160;-94
2022/03/25 08:21:10;;;;;;;34.78;19.83;;;9.40;99.90;;;;;;5032679;28;20033;-93
2022/03/25 08:29:05;;;;;;;28.42;17.77;;;9.60;99.90;;;;;;5009161;28;20053;-93
2022/03/25 08:31:34;;;;;;;34.53;19.80;;;9.60;99.90;;;;;;5008053;28;20085;-93
2022/03/25 08:34:01;;;;;;;33.88;20.35;;;9.70;99.90;;;;;;5000944;28;20061;-93
2022/03/25 08:36:27;;;;;;;35.28;20.45;;;9.90;99.90;;;;;;5017152;28;20041;-92
2022/03/25 08:38:53;;;;;;;32.17;19.85;;;10.10;99.90;;;;;;5013489;28;20123;-95
2022/03/25 08:41:19;;;;;;;31.85;18.10;;;10.10;99.90;;;;;;5029111;28;20471;-93
2022/03/25 08:43:48;;;;;;;38.85;19.88;;;10.20;99.90;;;;;;5017519;28;20045;-92
2022/03/25 08:46:14;;;;;;;29.77;17.02;;;10.20;99.90;;;;;;4997578;28;20056;-92
2022/03/25 08:48:40;;;;;;;36.45;18.83;;;10.10;97.70;;;;;;5033366;28;20162;-94
2022/03/25 08:51:06;;;;;;;27.83;17.73;;;10.00;99.70;;;;;;4997043;28;20501;-93
2022/03/25 08:53:32;;;;;;;31.00;17.08;;;10.00;99.90;;;;;;4997859;28;20045;-93
2022/03/25 08:56:01;;;;;;;30.42;18.60;;;10.00;96.30;;;;;;5015302;28;20033;-94
2022/03/25 08:58:26;;;;;;;33.22;17.95;;;10.00;98.20;;;;;;5015761;28;20049;-93
2022/03/25 09:00:52;;;;;;;29.95;16.52;;;10.20;99.90;;;;;;5000786;28;20050;-92
2022/03/25 09:03:18;;;;;;;32.40;20.00;;;10.40;99.90;;;;;;4996575;28;20157;-92
2022/03/25 09:05:44;;;;;;;35.70;21.08;;;10.60;99.90;;;;;;5014108;28;20038;-93
2022/03/25 09:08:10;;;;;;;35.33;20.00;;;10.80;99.90;;;;;;5014657;28;20056;-93
2022/03/25 09:10:36;;;;;;;40.05;22.48;;;10.90;99.90;;;;;;5015491;28;20080;-92
2022/03/25 09:13:02;;;;;;;36.42;20.95;;;10.90;99.90;;;;;;4999223;28;20068;-92
2022/03/25 09:15:28;;;;;;;36.88;19.42;;;11.00;99.90;;;;;;5024866;28;20112;-92
2022/03/25 09:17:54;;;;;;;36.30;22.17;;;11.00;99.90;;;;;;5000515;28;20081;-92
2022/03/25 09:20:20;;;;;;;41.05;23.38;;;11.00;99.90;;;;;;5016096;28;20151;-92
2022/03/25 09:22:46;;;;;;;36.92;21.50;;;11.10;99.90;;;;;;4999651;28;20493;-93
2022/03/25 09:25:12;;;;;;;37.88;23.52;;;11.30;99.90;;;;;;5015952;28;20045;-94
2022/03/25 09:27:39;;;;;;;40.63;23.45;;;11.40;99.90;;;;;;5016049;28;20049;-90
2022/03/25 09:30:09;;;;;;;33.60;22.48;;;11.40;99.90;;;;;;5016062;28;20053;-93
2022/03/25 09:32:35;;;;;;;40.63;23.60;;;11.40;99.90;;;;;;5014771;28;20498;-92
2022/03/25 09:35:10;;;;;;;36.60;24.17;;;11.30;99.90;;;;;;5035694;28;20060;-93
2022/03/25 09:37:38;;;;;;;38.13;23.27;;;11.20;99.90;;;;;;5019528;28;20076;-92
2022/03/25 09:40:08;;;;;;;37.53;24.25;;;11.30;99.90;;;;;;5019102;28;20094;-92
2022/03/25 09:42:35;;;;;;;40.30;24.27;;;11.40;99.90;;;;;;5019203;28;20044;-91
2022/03/25 09:45:05;;;;;;;39.17;25.08;;;11.50;99.90;;;;;;5002486;28;20055;-93
2022/03/25 09:47:32;;;;;;;45.00;24.25;;;11.60;99.90;;;;;;5018889;28;20055;-91
2022/03/25 09:50:02;;;;;;;43.63;24.48;;;11.70;99.90;;;;;;5018985;28;20053;-91
2022/03/25 09:52:33;;;;;;;40.25;25.23;;;11.80;99.90;;;;;;5018926;28;20087;-92
2022/03/25 09:55:00;;;;;;;38.33;24.02;;;12.00;99.90;;;;;;5002828;28;20063;-92
2022/03/25 09:57:26;;;;;;;33.58;21.20;;;11.90;99.90;;;;;;5019355;28;20061;-91
2022/03/25 09:59:53;;;;;;;37.13;25.00;;;11.80;99.90;;;;;;5018873;28;20479;-93
2022/03/25 10:02:19;;;;;;;38.17;23.83;;;11.70;99.90;;;;;;5018470;28;20545;-92
2022/03/25 10:04:46;;;;;;;32.40;21.65;;;11.80;99.90;;;;;;5018918;28;20183;-93
2022/03/25 10:07:32;;;;;;;39.53;23.80;;;12.00;99.90;;;;;;5002083;28;20037;-91
2022/03/25 10:10:13;;;;;;;38.53;24.33;;;12.10;99.90;;;;;;5018830;28;20052;-91
2022/03/25 10:12:40;;;;;;;;;;;12.10;99.90;;;;;;5019200;28;20045;-91
2022/03/25 10:15:26;;;;;;;38.92;22.85;;;12.20;99.90;;;;;;5018246;28;19925;-90
2022/03/25 10:17:56;;;;;;;33.55;21.02;;;12.30;99.90;;;;;;5018060;28;20076;-92
2022/03/25 10:20:39;;;;;;;32.53;21.30;;;12.40;99.90;;;;;;5018301;28;20059;-92
2022/03/25 10:23:16;;;;;;;32.47;22.52;;;12.50;99.90;;;;;;5017966;28;20064;-93
2022/03/25 10:25:55;;;;;;;38.38;23.30;;;12.70;99.90;;;;;;5018924;28;20049;-92
2022/03/25 10:28:36;;;;;;;33.08;23.58;;;12.70;99.90;;;;;;5016939;28;20056;-92
2022/03/25 10:31:19;;;;;;;33.28;24.20;;;12.70;99.90;;;;;;5016689;28;20627;-92
2022/03/25 10:33:57;;;;;;;34.67;22.88;;;12.60;99.90;;;;;;5000442;28;20055;-91
2022/03/25 10:36:25;;;;;;;40.58;24.33;;;12.60;99.90;;;;;;5016270;28;20492;-92
2022/03/25 10:38:57;;;;;;;35.13;22.92;;;12.70;99.90;;;;;;5016191;28;20152;-91
2022/03/25 10:41:37;;;;;;;39.13;23.27;;;12.60;99.90;;;;;;5000336;28;20042;-92
2022/03/25 10:44:04;;;;;;;;;;;12.50;99.90;;;;;;5008164;28;20045;-93
2022/03/25 10:46:36;;;;;;;34.00;22.08;;;12.50;99.90;;;;;;5000191;28;20288;-93
2022/03/25 10:49:05;;;;;;;38.25;20.90;;;12.40;99.90;;;;;;5018753;28;20079;-93
2022/03/25 10:51:33;;;;;;;30.85;20.90;;;12.50;99.90;;;;;;5017895;28;20041;-90
2022/03/25 10:54:02;;;;;;;35.45;21.20;;;12.50;99.90;;;;;;5018149;28;20045;-92
2022/03/25 10:56:42;;;;;;;33.03;20.45;;;12.50;99.90;;;;;;5017690;28;20072;-93
2022/03/25 10:59:27;;;;;;;31.85;21.70;;;12.60;99.90;;;;;;5018015;28;20041;-93
2022/03/25 11:01:57;;;;;;;29.75;20.45;;;12.70;99.90;;;;;;5017794;28;20135;-93
2022/03/25 11:04:24;;;;;;;34.20;21.60;;;12.70;99.90;;;;;;5023578;28;20044;-92
2022/03/25 11:06:50;;;;;;;38.25;19.55;;;12.80;99.90;;;;;;5017858;28;20045;-92
2022/03/25 11:09:18;;;;;;;35.72;20.77;;;12.90;99.20;;;;;;5017627;28;20408;-92
2022/03/25 11:11:45;;;;;;;36.28;20.17;;;12.80;99.40;;;;;;5017899;28;20076;-91
2022/03/25 11:14:12;;;;;;;33.90;19.33;;;12.90;99.90;;;;;;5033822;28;20500;-93
2022/03/25 11:16:47;;;;;;;32.92;19.63;;;13.00;97.60;;;;;;5017834;28;20059;-91
2022/03/25 11:19:14;;;;;;;31.90;20.88;;;13.10;97.80;;;;;;5034044;28;20123;-94
2022/03/25 11:21:46;;;;;;;35.28;21.40;;;13.10;98.90;;;;;;5018031;28;20160;-93
2022/03/25 11:24:15;;;;;;;35.00;21.15;;;13.10;97.20;;;;;;5017635;28;20132;-94
2022/03/25 11:26:44;;;;;;;29.25;22.10;;;13.10;96.70;;;;;;5020888;28;20500;-93
2022/03/25 11:29:14;;;;;;;35.00;23.67;;;13.10;98.50;;;;;;5016706;28;20057;-94
2022/03/25 11:32:12;;;;;;;34.75;23.85;;;12.80;99.20;;;;;;5018325;28;20103;-95
2022/03/25 11:34:54;;;;;;;32.97;21.83;;;12.70;97.70;;;;;;4998210;28;20058;-93
2022/03/25 11:37:21;;;;;;;39.28;21.45;;;12.80;98.40;;;;;;5000616;28;20057;-93
2022/03/25 11:39:48;;;;;;;34.85;24.48;;;12.80;99.90;;;;;;4984796;28;20050;-92
2022/03/25 11:42:38;;;;;;;44.03;25.17;;;13.00;99.90;;;;;;4994681;28;20046;-94
2022/03/25 11:45:31;;;;;;;37.03;25.80;;;13.00;99.90;;;;;;4994639;28;20119;-94
2022/03/25 11:48:19;;;;;;;35.10;25.25;;;12.90;99.90;;;;;;4994541;28;20049;-95
2022/03/25 11:50:45;;;;;;;36.85;24.80;;;12.80;99.90;;;;;;4984335;28;20104;-94
2022/03/25 11:53:11;;;;;;;36.17;25.17;;;12.70;99.90;;;;;;4994884;28;20418;-94
2022/03/25 11:56:01;;;;;;;48.08;26.50;;;12.70;98.70;;;;;;4981936;28;20092;-93
2022/03/25 11:58:29;;;;;;;38.13;26.05;;;12.60;99.90;;;;;;4993683;28;20050;-94
2022/03/25 12:01:04;;;;;;;41.58;25.88;;;12.80;99.90;;;;;;4994487;28;20050;-94
2022/03/25 12:03:56;;;;;;;37.13;26.25;;;12.70;98.60;;;;;;5006248;28;20084;-94
2022/03/25 12:06:29;;;;;;;40.00;25.02;;;12.60;98.00;;;;;;4993621;28;20116;-96
2022/03/25 12:09:15;;;;;;;43.25;26.08;;;12.40;96.90;;;;;;5009850;28;20088;-92
2022/03/25 12:11:55;;;;;;;42.28;25.40;;;12.30;98.10;;;;;;4994242;28;20041;-94
2022/03/25 12:14:31;;;;;;;39.05;24.30;;;12.30;97.40;;;;;;4993496;28;20046;-94
2022/03/25 12:16:59;;;;;;;38.03;24.02;;;12.20;93.60;;;;;;4990773;28;20042;-94
2022/03/25 12:19:28;;;;;;;38.47;22.13;;;12.30;97.00;;;;;;4993715;28;20054;-93
2022/03/25 12:21:57;;;;;;;36.00;20.42;;;12.50;96.50;;;;;;4992654;28;20049;-91
2022/03/25 12:24:25;;;;;;;48.10;20.40;;;12.50;95.80;;;;;;4999904;28;20043;-91
2022/03/25 12:27:08;;;;;;;28.00;16.83;;;12.70;90.60;;;;;;4985547;28;20494;-90
2022/03/25 12:29:37;;;;;;;33.42;18.13;;;12.90;79.20;;;;;;4989287;28;20050;-91
2022/03/25 12:32:31;;;;;;;46.67;20.25;;;13.00;83.50;;;;;;5000098;28;20128;-91
2022/03/25 12:35:01;;;;;;;35.08;20.95;;;13.00;75.80;;;;;;5026206;28;20049;-91
2022/03/25 12:37:55;;;;;;;48.80;23.45;;;12.90;77.90;;;;;;5012815;28;20045;-91
2022/03/25 12:40:25;;;;;;;40.40;21.20;;;12.90;80.70;;;;;;5013348;28;20148;-93
2022/03/25 12:42:58;;;;;;;36.08;19.98;;;12.80;82.90;;;;;;5016577;28;20501;-91
2022/03/25 12:45:30;;;;;;;41.13;20.85;;;12.80;82.20;;;;;;5013059;28;20517;-92
2022/03/25 12:47:56;;;;;;;32.65;20.67;;;12.90;74.40;;;;;;5030953;28;20048;-91